Time;durP1;ratioP1;P1;durP2;ratioP2;P2;SDS_P1;SDS_P2;PMS_P1;PMS_P2;Temp;Humidity;BMP_temperature;BMP_pressure;BME280_temperature;BME280_humidity;BME280_pressure;Samples;Min_cycle;Max_cycle;Signal;HPM_P1;HPM_P2
2022/12/15 00:38:56;;;;;;;76.28;31.08;;;;;;;;;;4979328;28;20102;-65
2022/12/15 00:41:21;;;;;;;63.70;28.42;;;;;;;;;;4978145;28;20038;-65
2022/12/15 00:43:47;;;;;;;76.47;28.85;;;;;;;;;;4979325;28;20027;-65
2022/12/15 00:48:57;;;;;;;73.70;29.77;;;;;;;;;;4979226;28;20041;-66
2022/12/15 01:21:26;;;;;;;92.47;31.88;;;;;;;;;;4975978;28;20085;-64
2022/12/15 01:23:52;;;;;;;91.97;31.27;;;;;;;;;;4975358;28;20458;-63
2022/12/15 01:26:18;;;;;;;92.35;31.38;;;;;;;;;;4975865;28;20057;-64
2022/12/15 01:28:43;;;;;;;84.00;33.00;;;;;;;;;;4975294;28;20470;-64
2022/12/15 01:31:10;;;;;;;91.35;36.13;;;;;;;;;;4975536;28;20054;-64
2022/12/15 01:33:37;;;;;;;79.38;33.88;;;;;;;;;;4975679;28;20106;-64
2022/12/15 01:36:03;;;;;;;87.40;33.95;;;;;;;;;;4975682;28;20045;-64
2022/12/15 01:38:29;;;;;;;98.57;35.05;;;;;;;;;;4975628;28;20030;-64
2022/12/15 01:40:59;;;;;;;79.85;31.25;;;;;;;;;;4975340;28;20474;-64
2022/12/15 01:43:30;;;;;;;83.45;33.10;;;;;;;;;;4975323;28;20030;-68
2022/12/15 01:46:08;;;;;;;82.07;30.63;;;;;;;;;;4975425;28;20031;-65
2022/12/15 01:48:43;;;;;;;90.13;32.67;;;;;;;;;;4975308;28;20039;-66
2022/12/15 01:51:27;;;;;;;84.78;31.73;;;;;;;;;;4973832;28;20022;-66
2022/12/15 01:54:16;;;;;;;77.35;29.17;;;;;;;;;;4975196;28;20031;-66
2022/12/15 01:56:48;;;;;;;96.00;35.90;;;;;;;;;;4974993;28;20027;-65
2022/12/15 01:59:19;;;;;;;106.32;34.90;;;;;;;;;;4975215;28;20026;-68
2022/12/15 02:01:45;;;;;;;93.15;33.88;;;;;;;;;;4975172;28;20034;-68
2022/12/15 02:04:11;;;;;;;90.43;33.40;;;;;;;;;;4975098;28;20035;-67
2022/12/15 02:06:37;;;;;;;89.43;34.00;;;;;;;;;;4974941;28;20026;-68
2022/12/15 02:09:03;;;;;;;92.70;34.70;;;;;;;;;;4974633;28;20505;-67
2022/12/15 02:11:38;;;;;;;79.60;31.38;;;;;;;;;;4974702;28;20026;-67
2022/12/15 02:14:09;;;;;;;83.05;32.13;;;;;;;;;;4975106;28;20026;-66
2022/12/15 02:17:02;;;;;;;84.68;29.00;;;;;;;;;;4974681;28;20035;-66
2022/12/15 02:19:47;;;;;;;87.70;30.52;;;;;;;;;;4974922;28;20046;-65
2022/12/15 02:23:04;;;;;;;66.65;28.23;;;;;;;;;;4974852;28;20113;-66
2022/12/15 02:25:43;;;;;;;82.70;28.98;;;;;;;;;;4917747;29;20440;-66
2022/12/15 02:28:30;;;;;;;82.35;29.27;;;;;;;;;;4934002;29;20044;-65
2022/12/15 02:31:50;;;;;;;67.15;25.98;;;;;;;;;;4933202;29;20035;-66
2022/12/15 02:34:20;;;;;;;72.07;27.30;;;;;;;;;;4933858;29;20051;-65
2022/12/15 02:36:59;;;;;;;77.47;28.90;;;;;;;;;;4933775;29;20078;-65
2022/12/15 02:39:25;;;;;;;73.40;28.70;;;;;;;;;;4933945;29;20138;-66
2022/12/15 02:41:51;;;;;;;72.72;28.27;;;;;;;;;;4933509;29;20494;-66
2022/12/15 02:44:22;;;;;;;72.22;28.55;;;;;;;;;;4933638;29;20530;-66
2022/12/15 02:46:50;;;;;;;;;;;;;;;;;;4933969;29;20407;-65
2022/12/15 02:49:30;;;;;;;58.25;28.00;;;;;;;;;;4933638;29;20374;-65
2022/12/15 02:52:29;;;;;;;53.50;26.38;;;;;;;;;;4933739;29;20051;-66
2022/12/15 02:55:11;;;;;;;66.35;26.95;;;;;;;;;;4933170;29;20036;-65
2022/12/15 02:58:04;;;;;;;79.40;29.45;;;;;;;;;;4933574;29;20083;-66
2022/12/15 03:00:36;;;;;;;62.60;26.58;;;;;;;;;;4948917;28;20039;-65
2022/12/15 03:03:02;;;;;;;74.07;29.73;;;;;;;;;;4972599;28;20037;-65
2022/12/15 03:05:30;;;;;;;85.85;28.50;;;;;;;;;;4974129;28;20019;-65
2022/12/15 03:07:56;;;;;;;80.53;29.65;;;;;;;;;;4974035;28;20038;-65
2022/12/15 03:10:23;;;;;;;69.10;27.00;;;;;;;;;;4973766;28;20022;-65
2022/12/15 03:12:49;;;;;;;63.97;26.33;;;;;;;;;;4973658;28;20501;-64
2022/12/15 03:15:16;;;;;;;74.88;30.42;;;;;;;;;;4973879;28;20050;-65
2022/12/15 03:17:41;;;;;;;72.72;27.52;;;;;;;;;;4973878;28;20074;-67
2022/12/15 03:20:08;;;;;;;69.90;25.83;;;;;;;;;;4973761;28;20042;-65
2022/12/15 03:22:34;;;;;;;73.57;28.42;;;;;;;;;;4973014;28;20086;-65
2022/12/15 03:25:00;;;;;;;70.32;28.05;;;;;;;;;;4973133;28;20043;-65
2022/12/15 03:27:25;;;;;;;80.45;29.42;;;;;;;;;;4973566;28;20378;-65
2022/12/15 03:29:51;;;;;;;57.67;25.27;;;;;;;;;;4973724;28;20037;-67
2022/12/15 03:32:16;;;;;;;53.80;23.05;;;;;;;;;;4973755;28;20106;-65
2022/12/15 03:34:42;;;;;;;73.22;27.95;;;;;;;;;;4973545;28;20097;-65
2022/12/15 03:37:08;;;;;;;66.70;23.17;;;;;;;;;;4973377;28;20034;-66
2022/12/15 03:39:33;;;;;;;64.38;24.98;;;;;;;;;;4973405;28;20023;-66
2022/12/15 03:41:59;;;;;;;75.05;28.63;;;;;;;;;;4972279;28;20039;-66
2022/12/15 03:44:24;;;;;;;77.28;28.10;;;;;;;;;;4973385;28;20069;-65
2022/12/15 03:46:50;;;;;;;69.22;28.55;;;;;;;;;;4973231;28;20030;-66
2022/12/15 03:49:15;;;;;;;71.50;28.05;;;;;;;;;;4973358;28;20389;-65
2022/12/15 03:51:41;;;;;;;48.35;22.92;;;;;;;;;;4973643;28;20113;-65
2022/12/15 03:54:06;;;;;;;82.22;29.75;;;;;;;;;;4973211;28;20379;-67
2022/12/15 03:56:32;;;;;;;70.35;25.67;;;;;;;;;;4973224;28;20083;-66
2022/12/15 03:58:57;;;;;;;41.70;16.20;;;;;;;;;;4973138;28;20046;-67
2022/12/15 04:01:31;;;;;;;41.75;22.13;;;;;;;;;;4973273;28;20055;-66
2022/12/15 04:03:58;;;;;;;66.80;27.75;;;;;;;;;;4973259;28;20030;-67
2022/12/15 04:06:24;;;;;;;67.68;27.98;;;;;;;;;;4973261;28;20038;-67
2022/12/15 04:08:49;;;;;;;81.95;29.45;;;;;;;;;;4972865;28;20027;-67
2022/12/15 04:11:16;;;;;;;76.20;30.08;;;;;;;;;;4973392;28;20030;-67
2022/12/15 04:13:42;;;;;;;85.13;28.42;;;;;;;;;;4973125;28;20023;-67
2022/12/15 04:16:08;;;;;;;68.28;27.83;;;;;;;;;;4973256;28;20508;-67
2022/12/15 04:18:33;;;;;;;73.43;29.83;;;;;;;;;;4972995;28;20105;-66
2022/12/15 04:20:59;;;;;;;80.32;30.73;;;;;;;;;;4973023;28;20069;-66
2022/12/15 04:23:24;;;;;;;72.65;29.75;;;;;;;;;;4972650;28;20348;-66
2022/12/15 05:31:57;;;;;;;58.88;23.50;;;;;;;;;;4976086;28;20041;-66
2022/12/15 05:34:34;;;;;;;63.33;26.52;;;;;;;;;;4975326;28;20394;-66
2022/12/15 05:37:01;;;;;;;55.42;25.38;;;;;;;;;;4975548;28;20026;-65
2022/12/15 05:39:26;;;;;;;38.42;19.00;;;;;;;;;;4975712;28;20035;-65
2022/12/15 05:41:54;;;;;;;51.58;23.40;;;;;;;;;;4975519;28;20045;-66
2022/12/15 05:44:20;;;;;;;43.67;19.85;;;;;;;;;;4974792;28;20081;-66
2022/12/15 05:46:46;;;;;;;52.47;20.92;;;;;;;;;;4975359;28;20486;-67
2022/12/15 05:49:14;;;;;;;49.97;22.80;;;;;;;;;;4975134;28;20077;-67
2022/12/15 05:51:41;;;;;;;57.65;25.42;;;;;;;;;;4975209;28;20034;-65
2022/12/15 05:54:08;;;;;;;52.55;22.95;;;;;;;;;;4975330;28;20026;-66
2022/12/15 05:56:34;;;;;;;57.50;22.77;;;;;;;;;;4975052;28;20019;-67
2022/12/15 05:58:59;;;;;;;63.47;25.98;;;;;;;;;;4975040;28;20030;-67
2022/12/15 06:01:26;;;;;;;58.75;25.08;;;;;;;;;;4975178;28;20030;-66
2022/12/15 06:03:52;;;;;;;39.63;19.05;;;;;;;;;;4974798;28;20031;-66
2022/12/15 06:06:18;;;;;;;55.38;23.88;;;;;;;;;;4975220;28;20469;-65
2022/12/15 06:08:44;;;;;;;48.78;22.30;;;;;;;;;;4974895;28;20102;-67
2022/12/15 06:11:12;;;;;;;59.15;25.35;;;;;;;;;;4974783;28;20517;-67
2022/12/15 06:13:37;;;;;;;60.72;25.80;;;;;;;;;;4974836;28;20492;-68
2022/12/15 06:16:11;;;;;;;48.97;22.92;;;;;;;;;;4974930;28;20030;-67
2022/12/15 06:18:40;;;;;;;60.38;25.52;;;;;;;;;;4974563;28;20134;-67
2022/12/15 06:21:12;;;;;;;30.48;15.45;;;;;;;;;;4974788;28;20027;-68
2022/12/15 06:23:39;;;;;;;48.15;19.98;;;;;;;;;;4974251;28;20074;-68
2022/12/15 06:26:26;;;;;;;65.40;26.00;;;;;;;;;;4974700;28;20030;-68
2022/12/15 06:28:54;;;;;;;56.63;22.27;;;;;;;;;;4974287;28;20018;-68
2022/12/15 06:31:24;;;;;;;46.42;20.85;;;;;;;;;;4974363;28;20070;-67
2022/12/15 06:33:50;;;;;;;43.03;17.77;;;;;;;;;;4974239;28;20026;-67
2022/12/15 06:36:17;;;;;;;51.45;23.83;;;;;;;;;;4974430;28;20027;-68
2022/12/15 06:38:43;;;;;;;47.65;19.38;;;;;;;;;;4974477;28;20045;-67
2022/12/15 06:41:10;;;;;;;53.25;21.60;;;;;;;;;;4974279;28;20477;-65
2022/12/15 06:43:36;;;;;;;53.58;24.17;;;;;;;;;;4974126;28;20456;-66
2022/12/15 06:46:02;;;;;;;56.92;24.85;;;;;;;;;;4974306;28;20051;-66
2022/12/15 06:48:27;;;;;;;56.78;25.05;;;;;;;;;;4974043;28;20047;-66
2022/12/15 06:50:53;;;;;;;52.35;23.52;;;;;;;;;;4974122;28;20441;-65
2022/12/15 06:53:21;;;;;;;41.67;16.02;;;;;;;;;;4974139;28;20034;-65
2022/12/15 06:55:47;;;;;;;47.97;21.95;;;;;;;;;;4973353;28;20035;-65
2022/12/15 06:58:14;;;;;;;77.03;25.83;;;;;;;;;;4973998;28;20037;-64
2022/12/15 07:00:43;;;;;;;66.00;22.65;;;;;;;;;;4972656;28;20033;-64
2022/12/15 07:03:16;;;;;;;60.58;24.58;;;;;;;;;;4973623;28;20031;-64
2022/12/15 07:05:45;;;;;;;56.60;24.50;;;;;;;;;;4974038;28;20037;-65
2022/12/15 07:08:12;;;;;;;65.60;24.70;;;;;;;;;;4973953;28;20382;-64
2022/12/15 07:10:42;;;;;;;77.05;27.60;;;;;;;;;;4973714;28;20039;-66
2022/12/15 07:13:11;;;;;;;60.55;25.73;;;;;;;;;;4973627;28;20114;-66
2022/12/15 07:15:38;;;;;;;62.28;24.15;;;;;;;;;;4973583;28;20034;-66
2022/12/15 07:18:04;;;;;;;30.40;14.88;;;;;;;;;;4973650;28;20026;-66
2022/12/15 07:20:30;;;;;;;73.68;27.02;;;;;;;;;;4973666;28;20027;-64
2022/12/15 07:22:56;;;;;;;70.45;25.83;;;;;;;;;;4973049;28;20066;-65
2022/12/15 07:25:22;;;;;;;59.05;23.95;;;;;;;;;;4973585;28;20237;-65
2022/12/15 07:27:48;;;;;;;50.40;22.20;;;;;;;;;;4973505;28;20037;-65
2022/12/15 07:30:15;;;;;;;61.15;24.90;;;;;;;;;;4973326;28;20034;-65
2022/12/15 07:32:43;;;;;;;57.40;26.05;;;;;;;;;;4972101;28;20448;-65
2022/12/15 07:35:09;;;;;;;79.88;31.30;;;;;;;;;;4973723;28;20422;-66
2022/12/15 07:37:34;;;;;;;58.80;26.02;;;;;;;;;;4972263;28;20394;-65
2022/12/15 07:40:00;;;;;;;65.88;26.95;;;;;;;;;;4973519;28;20027;-65
2022/12/15 07:42:28;;;;;;;64.75;27.67;;;;;;;;;;4973482;28;20053;-66
2022/12/15 07:44:54;;;;;;;56.53;25.23;;;;;;;;;;4973105;28;20043;-65
2022/12/15 07:47:20;;;;;;;68.13;27.13;;;;;;;;;;4973534;28;20023;-66
2022/12/15 07:49:45;;;;;;;55.83;23.45;;;;;;;;;;4973411;28;20035;-66
2022/12/15 07:52:12;;;;;;;68.15;26.85;;;;;;;;;;4973414;28;20414;-66
2022/12/15 07:54:38;;;;;;;52.22;23.10;;;;;;;;;;4973465;28;20492;-65
2022/12/15 07:57:06;;;;;;;69.88;26.00;;;;;;;;;;4973199;28;20062;-66
2022/12/15 07:59:32;;;;;;;59.03;25.70;;;;;;;;;;4973097;28;20041;-65
2022/12/15 08:01:59;;;;;;;54.60;23.48;;;;;;;;;;4973117;28;20062;-65
2022/12/15 08:04:25;;;;;;;53.40;22.10;;;;;;;;;;4971924;28;20023;-66
2022/12/15 08:06:52;;;;;;;27.08;10.70;;;;;;;;;;4972920;28;20022;-65
2022/12/15 08:09:18;;;;;;;36.20;14.80;;;;;;;;;;4977221;28;20466;-67
2022/12/15 08:11:43;;;;;;;59.17;24.58;;;;;;;;;;4977177;28;20039;-68
2022/12/15 08:14:09;;;;;;;52.90;24.05;;;;;;;;;;4976791;28;20027;-69
2022/12/15 08:16:35;;;;;;;49.92;21.40;;;;;;;;;;4977024;28;20086;-67
2022/12/15 08:19:02;;;;;;;62.67;24.98;;;;;;;;;;4976830;28;20367;-67
2022/12/15 08:21:30;;;;;;;34.90;16.80;;;;;;;;;;4976953;28;20552;-67
2022/12/15 08:23:55;;;;;;;35.33;17.90;;;;;;;;;;4976575;28;20130;-65
2022/12/15 08:26:21;;;;;;;45.72;21.92;;;;;;;;;;4976820;28;20455;-68
2022/12/15 08:28:46;;;;;;;30.85;14.88;;;;;;;;;;4976473;28;20026;-68
2022/12/15 08:31:17;;;;;;;53.35;23.13;;;;;;;;;;4976375;28;20042;-67
2022/12/15 08:33:44;;;;;;;60.45;24.67;;;;;;;;;;4976434;28;20027;-67
2022/12/15 08:36:12;;;;;;;54.35;24.33;;;;;;;;;;4976724;28;20037;-67
2022/12/15 08:38:39;;;;;;;59.80;24.33;;;;;;;;;;4976581;28;20082;-66
2022/12/15 08:41:10;;;;;;;46.15;15.82;;;;;;;;;;4976332;28;20393;-67
2022/12/15 08:43:36;;;;;;;46.22;21.52;;;;;;;;;;4976183;28;20393;-66
2022/12/15 08:46:03;;;;;;;51.42;21.42;;;;;;;;;;4976522;28;20423;-66
2022/12/15 08:48:28;;;;;;;46.90;21.55;;;;;;;;;;4976419;28;20030;-65
2022/12/15 08:50:55;;;;;;;51.25;21.77;;;;;;;;;;4976162;28;20443;-66
2022/12/15 08:53:20;;;;;;;56.80;23.52;;;;;;;;;;4976506;28;20093;-66
2022/12/15 08:55:46;;;;;;;51.13;21.60;;;;;;;;;;4976362;28;20386;-66
2022/12/15 08:58:11;;;;;;;47.67;20.10;;;;;;;;;;4976218;28;20018;-66
2022/12/15 09:00:37;;;;;;;47.97;21.88;;;;;;;;;;4976139;28;20089;-66
2022/12/15 09:03:02;;;;;;;61.35;22.67;;;;;;;;;;4976209;28;20144;-65
2022/12/15 09:05:28;;;;;;;47.42;20.98;;;;;;;;;;4975951;28;20031;-66
2022/12/15 09:07:56;;;;;;;36.90;19.30;;;;;;;;;;4976171;28;20398;-65
2022/12/15 09:10:22;;;;;;;40.42;18.02;;;;;;;;;;4976202;28;20031;-65
2022/12/15 09:12:47;;;;;;;48.50;23.05;;;;;;;;;;4982946;28;20041;-65
2022/12/15 09:15:13;;;;;;;44.58;19.45;;;;;;;;;;4975994;28;20106;-64
2022/12/15 09:17:38;;;;;;;51.78;22.50;;;;;;;;;;4975937;28;20130;-65
2022/12/15 09:20:04;;;;;;;42.80;20.48;;;;;;;;;;4985557;28;20309;-65
2022/12/15 09:22:30;;;;;;;45.05;20.17;;;;;;;;;;4984333;28;20022;-66
2022/12/15 09:24:56;;;;;;;33.42;17.77;;;;;;;;;;4985591;28;20039;-65
2022/12/15 09:27:21;;;;;;;39.78;17.90;;;;;;;;;;4984231;28;20109;-64
2022/12/15 09:29:47;;;;;;;40.20;17.73;;;;;;;;;;4984693;28;20026;-66
2022/12/15 09:32:13;;;;;;;50.80;23.88;;;;;;;;;;4988672;28;20022;-65
2022/12/15 09:34:39;;;;;;;56.80;23.83;;;;;;;;;;4995081;28;20470;-64
2022/12/15 09:37:04;;;;;;;43.67;18.75;;;;;;;;;;4983432;28;20022;-65
2022/12/15 09:39:31;;;;;;;49.90;21.55;;;;;;;;;;4975685;28;20382;-65
2022/12/15 09:41:59;;;;;;;53.17;21.98;;;;;;;;;;4975203;28;20038;-64
2022/12/15 09:44:28;;;;;;;54.75;22.15;;;;;;;;;;4975578;28;20110;-64
2022/12/15 09:47:05;;;;;;;53.08;22.80;;;;;;;;;;4975259;28;20473;-64
2022/12/15 09:49:51;;;;;;;58.67;26.00;;;;;;;;;;4975357;28;20086;-64
2022/12/15 09:52:30;;;;;;;36.15;17.05;;;;;;;;;;4974982;28;20034;-64
2022/12/15 09:55:00;;;;;;;43.22;16.52;;;;;;;;;;4975025;28;20375;-64
2022/12/15 09:57:43;;;;;;;56.20;23.27;;;;;;;;;;4975356;28;20026;-68
2022/12/15 10:00:12;;;;;;;40.13;20.40;;;;;;;;;;4975241;28;20034;-67
2022/12/15 10:03:02;;;;;;;21.73;11.35;;;;;;;;;;4975136;28;20038;-66
2022/12/15 10:05:46;;;;;;;41.30;19.85;;;;;;;;;;4975277;28;20030;-64
2022/12/15 10:08:13;;;;;;;61.58;25.42;;;;;;;;;;4974993;28;20039;-66
2022/12/15 10:10:52;;;;;;;59.58;23.52;;;;;;;;;;4974730;28;20378;-66
2022/12/15 10:13:58;;;;;;;45.50;22.40;;;;;;;;;;4975024;28;20054;-67
2022/12/15 10:16:31;;;;;;;49.92;18.92;;;;;;;;;;4973490;28;20026;-67
2022/12/15 10:19:18;;;;;;;36.67;20.27;;;;;;;;;;4974674;28;20035;-67
2022/12/15 10:21:46;;;;;;;50.47;19.23;;;;;;;;;;4974646;28;20548;-67
2022/12/15 10:24:16;;;;;;;35.80;16.00;;;;;;;;;;4974118;28;20073;-66
2022/12/15 10:26:42;;;;;;;;;;;;;;;;;;4975010;28;20038;-66
2022/12/15 10:29:19;;;;;;;29.40;14.55;;;;;;;;;;4974188;28;19922;-65
2022/12/15 10:32:13;;;;;;;41.17;17.88;;;;;;;;;;4973633;28;20030;-65
2022/12/15 10:34:39;;;;;;;38.70;15.30;;;;;;;;;;4974413;28;20061;-66
2022/12/15 10:37:05;;;;;;;25.42;15.55;;;;;;;;;;4972981;28;20027;-66
2022/12/15 10:39:40;;;;;;;44.75;19.45;;;;;;;;;;4974201;28;20034;-65
2022/12/15 10:42:43;;;;;;;52.25;19.85;;;;;;;;;;4974212;28;20031;-67
2022/12/15 10:45:37;;;;;;;46.92;21.13;;;;;;;;;;4974064;28;20038;-66
2022/12/15 10:48:05;;;;;;;48.70;18.52;;;;;;;;;;4974196;28;20386;-68
2022/12/15 10:50:33;;;;;;;37.58;17.83;;;;;;;;;;4974077;28;20027;-68
2022/12/15 10:53:05;;;;;;;45.58;19.13;;;;;;;;;;4973607;28;20031;-68
2022/12/15 10:55:40;;;;;;;20.10;10.73;;;;;;;;;;4973982;28;20106;-67
2022/12/15 10:58:20;;;;;;;40.60;20.02;;;;;;;;;;4973780;28;20062;-67
2022/12/15 11:00:47;;;;;;;54.65;23.17;;;;;;;;;;4973859;28;20034;-66
2022/12/15 11:03:23;;;;;;;52.17;22.15;;;;;;;;;;4973906;28;20109;-68
2022/12/15 11:05:54;;;;;;;68.18;18.67;;;;;;;;;;4973867;28;20077;-67
2022/12/15 11:08:19;;;;;;;;;;;;;;;;;;4972943;28;20037;-67
2022/12/15 11:13:38;;;;;;;27.50;15.38;;;;;;;;;;4985457;28;20041;-67
2022/12/15 11:16:15;;;;;;;33.15;15.93;;;;;;;;;;4993233;28;20023;-67
2022/12/15 11:18:44;;;;;;;45.20;21.55;;;;;;;;;;4993249;28;20073;-68
2022/12/15 11:21:41;;;;;;;61.63;24.38;;;;;;;;;;4992994;28;20045;-67
2022/12/15 11:24:15;;;;;;;35.05;17.38;;;;;;;;;;4980558;28;20039;-67
2022/12/15 11:27:00;;;;;;;50.75;22.92;;;;;;;;;;4973988;28;20386;-68
2022/12/15 11:30:13;;;;;;;48.88;23.23;;;;;;;;;;4973785;28;20097;-66
2022/12/15 11:32:43;;;;;;;54.72;21.52;;;;;;;;;;4951766;29;20038;-67
2022/12/15 11:35:13;;;;;;;50.80;23.60;;;;;;;;;;4952284;29;20053;-68
2022/12/15 11:37:41;;;;;;;42.88;20.38;;;;;;;;;;4951844;28;20266;-66
2022/12/15 11:40:19;;;;;;;35.60;18.55;;;;;;;;;;4952077;29;20407;-68
2022/12/15 11:42:59;;;;;;;52.92;24.65;;;;;;;;;;4951270;29;20360;-69
2022/12/15 11:45:40;;;;;;;;;;;;;;;;;;4952513;29;20462;-67
2022/12/15 11:48:16;;;;;;;55.13;22.88;;;;;;;;;;4952058;29;19914;-68
2022/12/15 11:51:02;;;;;;;41.28;21.00;;;;;;;;;;4951907;29;20637;-67
2022/12/15 11:53:36;;;;;;;43.17;19.13;;;;;;;;;;4952058;29;20073;-68
2022/12/15 11:56:14;;;;;;;47.08;20.38;;;;;;;;;;4952158;29;20058;-66
2022/12/15 11:58:51;;;;;;;41.83;20.75;;;;;;;;;;4951971;29;20512;-69
2022/12/15 12:01:20;;;;;;;58.33;23.05;;;;;;;;;;4951930;29;20039;-65
2022/12/15 12:03:54;;;;;;;33.50;16.92;;;;;;;;;;4951788;29;20106;-66
2022/12/15 12:06:49;;;;;;;49.85;20.92;;;;;;;;;;4961494;28;20486;-68
2022/12/15 12:09:28;;;;;;;50.17;22.38;;;;;;;;;;4951848;29;20062;-66
2022/12/15 12:11:57;;;;;;;44.03;19.63;;;;;;;;;;4935654;29;20050;-67
2022/12/15 12:14:31;;;;;;;40.05;18.67;;;;;;;;;;4949514;29;20087;-67
2022/12/15 12:17:10;;;;;;;51.25;22.92;;;;;;;;;;4951686;29;20047;-67
2022/12/15 12:19:47;;;;;;;47.58;21.50;;;;;;;;;;4951800;29;20074;-67
2022/12/15 12:22:24;;;;;;;47.95;22.27;;;;;;;;;;4951501;29;20083;-68
2022/12/15 12:25:02;;;;;;;41.08;18.27;;;;;;;;;;4951227;29;20553;-67
2022/12/15 12:27:48;;;;;;;38.58;17.73;;;;;;;;;;4951597;28;20048;-67
2022/12/15 12:30:18;;;;;;;49.13;19.25;;;;;;;;;;4951828;29;20503;-65
2022/12/15 12:32:54;;;;;;;57.13;23.05;;;;;;;;;;4951480;29;20503;-66
2022/12/15 12:35:31;;;;;;;43.25;18.27;;;;;;;;;;4951372;29;20088;-65
2022/12/15 12:38:06;;;;;;;51.83;23.35;;;;;;;;;;4951582;29;20426;-65
2022/12/15 12:40:40;;;;;;;43.80;20.05;;;;;;;;;;4951486;29;20059;-65
2022/12/15 12:43:08;;;;;;;42.60;19.42;;;;;;;;;;4951367;29;20074;-65
2022/12/15 12:45:55;;;;;;;34.25;15.30;;;;;;;;;;4956306;28;20042;-65
2022/12/15 12:48:25;;;;;;;31.45;16.88;;;;;;;;;;4972983;28;20119;-65
2022/12/15 12:51:08;;;;;;;54.97;22.17;;;;;;;;;;4971291;28;20379;-65
2022/12/15 12:53:34;;;;;;;40.00;19.05;;;;;;;;;;4976419;28;20027;-65
2022/12/15 12:55:59;;;;;;;28.42;15.20;;;;;;;;;;4993638;28;20039;-65
2022/12/15 12:58:36;;;;;;;35.65;16.35;;;;;;;;;;4995796;28;20019;-66
2022/12/15 13:01:29;;;;;;;47.38;20.52;;;;;;;;;;4995607;28;20109;-66
2022/12/15 13:04:32;;;;;;;53.45;21.98;;;;;;;;;;4983830;28;20051;-65
2022/12/15 13:07:03;;;;;;;40.78;18.15;;;;;;;;;;4964071;28;20049;-66
2022/12/15 13:09:42;;;;;;;46.60;19.45;;;;;;;;;;4964131;28;20019;-66
2022/12/15 13:12:46;;;;;;;47.55;21.35;;;;;;;;;;4963813;28;20046;-65
2022/12/15 13:15:41;;;;;;;43.25;19.05;;;;;;;;;;4963109;28;20027;-65
2022/12/15 13:18:19;;;;;;;53.35;20.92;;;;;;;;;;4961743;28;20031;-65
2022/12/15 13:20:47;;;;;;;45.80;19.48;;;;;;;;;;4963199;28;20035;-65
2022/12/15 13:23:18;;;;;;;55.83;21.88;;;;;;;;;;4962211;28;20083;-65
2022/12/15 13:25:45;;;;;;;49.55;20.48;;;;;;;;;;4960964;28;20040;-65
2022/12/15 13:28:28;;;;;;;52.45;21.27;;;;;;;;;;4955397;28;20639;-65
2022/12/15 13:31:19;;;;;;;48.20;21.60;;;;;;;;;;4954194;29;20062;-65
2022/12/15 13:33:51;;;;;;;30.67;14.02;;;;;;;;;;4953296;29;20445;-66
2022/12/15 13:36:42;;;;;;;40.50;19.48;;;;;;;;;;4954239;29;20071;-66
2022/12/15 13:39:11;;;;;;;37.80;18.50;;;;;;;;;;4953994;29;20082;-66
2022/12/15 13:41:39;;;;;;;41.45;20.65;;;;;;;;;;4953999;29;20146;-67
2022/12/15 13:44:27;;;;;;;27.73;13.57;;;;;;;;;;4972302;28;20046;-66
2022/12/15 13:46:56;;;;;;;51.55;19.73;;;;;;;;;;4975151;28;20390;-65
2022/12/15 13:49:30;;;;;;;31.17;15.00;;;;;;;;;;4975439;28;20054;-65
2022/12/15 13:52:10;;;;;;;55.25;22.23;;;;;;;;;;4975012;28;20042;-64
2022/12/15 13:54:39;;;;;;;;;;;;;;;;;;4975804;28;20081;-65
2022/12/15 13:57:16;;;;;;;37.35;17.05;;;;;;;;;;4975102;28;19914;-64
2022/12/15 13:59:46;;;;;;;40.83;17.90;;;;;;;;;;4975260;28;20037;-65
2022/12/15 14:02:29;;;;;;;42.97;18.08;;;;;;;;;;4974938;28;20026;-66
2022/12/15 14:05:17;;;;;;;54.33;20.40;;;;;;;;;;4974333;28;20515;-65
2022/12/15 14:07:59;;;;;;;46.40;18.75;;;;;;;;;;4975010;28;20031;-66
2022/12/15 14:10:40;;;;;;;46.78;19.58;;;;;;;;;;4975141;28;20362;-65
2022/12/15 14:13:20;;;;;;;36.20;17.33;;;;;;;;;;4974889;28;20496;-67
2022/12/15 14:15:52;;;;;;;45.28;19.20;;;;;;;;;;4982673;28;20082;-65
2022/12/15 14:18:22;;;;;;;35.45;15.40;;;;;;;;;;4980871;28;20096;-68
2022/12/15 14:20:48;;;;;;;32.67;15.80;;;;;;;;;;4990992;28;20041;-66
2022/12/15 14:23:22;;;;;;;58.53;21.52;;;;;;;;;;4993681;28;20046;-67
2022/12/15 14:25:52;;;;;;;32.10;15.30;;;;;;;;;;4974664;28;20532;-68
2022/12/15 14:28:33;;;;;;;30.55;16.08;;;;;;;;;;4974458;28;20035;-67
2022/12/15 14:31:05;;;;;;;60.30;28.50;;;;;;;;;;4972789;28;20116;-66
2022/12/15 14:33:36;;;;;;;64.03;29.35;;;;;;;;;;4974499;28;20470;-67
2022/12/15 14:36:06;;;;;;;73.18;29.35;;;;;;;;;;4975730;28;20428;-68
2022/12/15 14:38:42;;;;;;;49.00;21.77;;;;;;;;;;4974126;28;20034;-67
2022/12/15 14:41:20;;;;;;;39.05;17.10;;;;;;;;;;4974144;28;20039;-68
2022/12/15 14:43:48;;;;;;;37.88;16.88;;;;;;;;;;4974211;28;20474;-67
2022/12/15 14:46:17;;;;;;;34.72;16.85;;;;;;;;;;4974010;28;20065;-68
2022/12/15 14:48:58;;;;;;;46.35;21.88;;;;;;;;;;4974097;28;20046;-68
2022/12/15 14:51:27;;;;;;;46.55;19.40;;;;;;;;;;4972813;28;20041;-67
2022/12/15 14:53:53;;;;;;;31.35;14.60;;;;;;;;;;4973999;28;20027;-68
2022/12/15 14:56:19;;;;;;;54.22;21.15;;;;;;;;;;4974135;28;20386;-68
2022/12/15 14:58:46;;;;;;;45.15;19.42;;;;;;;;;;4973910;28;20033;-67
2022/12/15 15:01:29;;;;;;;43.58;17.52;;;;;;;;;;4983763;28;20070;-67
2022/12/15 15:04:23;;;;;;;44.35;18.13;;;;;;;;;;4983708;28;20132;-68
2022/12/15 15:06:54;;;;;;;52.15;19.58;;;;;;;;;;4980635;28;20081;-67
2022/12/15 15:09:28;;;;;;;47.35;19.98;;;;;;;;;;4979576;28;20026;-67
2022/12/15 15:12:04;;;;;;;34.30;14.07;;;;;;;;;;4983850;28;20129;-68
2022/12/15 15:14:39;;;;;;;33.90;17.15;;;;;;;;;;4993124;28;20404;-66
2022/12/15 15:17:13;;;;;;;37.60;16.88;;;;;;;;;;4992357;28;20101;-67
2022/12/15 15:20:04;;;;;;;50.63;20.67;;;;;;;;;;4993392;28;20025;-68
2022/12/15 15:22:41;;;;;;;47.75;19.88;;;;;;;;;;4993152;28;20030;-66
2022/12/15 15:25:31;;;;;;;34.10;16.10;;;;;;;;;;4977571;28;20042;-65
2022/12/15 15:28:22;;;;;;;41.13;17.35;;;;;;;;;;4973733;28;20027;-66
2022/12/15 15:31:06;;;;;;;44.90;19.58;;;;;;;;;;4952124;29;20043;-65
2022/12/15 15:33:32;;;;;;;35.00;17.58;;;;;;;;;;4952340;29;20035;-66
2022/12/15 15:35:59;;;;;;;41.63;19.42;;;;;;;;;;4952191;28;20178;-66
2022/12/15 15:38:34;;;;;;;41.03;18.50;;;;;;;;;;4952212;29;20143;-67
2022/12/15 15:41:10;;;;;;;32.40;16.45;;;;;;;;;;4951805;28;20038;-65
2022/12/15 15:43:35;;;;;;;37.88;15.80;;;;;;;;;;4958088;28;20035;-65
2022/12/15 15:46:07;;;;;;;32.83;15.85;;;;;;;;;;4970992;28;20392;-66
2022/12/15 15:48:57;;;;;;;37.97;12.20;;;;;;;;;;4971096;28;20046;-65
2022/12/15 15:51:24;;;;;;;35.60;15.70;;;;;;;;;;4970944;28;20042;-65
2022/12/15 15:53:51;;;;;;;42.75;18.63;;;;;;;;;;4971082;28;20038;-67
2022/12/15 15:56:17;;;;;;;41.28;20.13;;;;;;;;;;4971095;28;20467;-65
2022/12/15 15:58:43;;;;;;;43.03;19.10;;;;;;;;;;4953069;28;20395;-64
2022/12/15 16:01:09;;;;;;;31.60;15.00;;;;;;;;;;4946134;28;20055;-65
2022/12/15 16:03:35;;;;;;;56.72;20.25;;;;;;;;;;4944083;28;20077;-64
2022/12/15 16:06:05;;;;;;;42.03;18.30;;;;;;;;;;4921037;28;20110;-65
2022/12/15 16:08:34;;;;;;;46.90;20.17;;;;;;;;;;4956267;28;20035;-65
2022/12/15 16:11:00;;;;;;;45.78;20.77;;;;;;;;;;4957640;28;20036;-64
2022/12/15 16:13:25;;;;;;;34.83;15.05;;;;;;;;;;4957227;28;20038;-64
2022/12/15 16:15:51;;;;;;;47.22;19.90;;;;;;;;;;4956723;28;20034;-64
2022/12/15 16:18:17;;;;;;;43.05;20.10;;;;;;;;;;4960064;28;20486;-67
2022/12/15 16:20:45;;;;;;;41.33;17.83;;;;;;;;;;4958300;28;20087;-65
2022/12/15 16:23:14;;;;;;;47.97;19.83;;;;;;;;;;4956537;28;20162;-65
2022/12/15 16:25:56;;;;;;;43.53;19.53;;;;;;;;;;4962674;28;21334;-67
2022/12/15 16:28:25;;;;;;;45.75;19.83;;;;;;;;;;4958202;28;20524;-67
2022/12/15 16:30:51;;;;;;;37.85;19.67;;;;;;;;;;4960074;28;20031;-68
2022/12/15 16:33:17;;;;;;;34.30;15.68;;;;;;;;;;4963122;28;20050;-67
2022/12/15 16:35:44;;;;;;;27.60;14.75;;;;;;;;;;4960462;28;20026;-66
2022/12/15 16:38:18;;;;;;;35.92;16.52;;;;;;;;;;4960795;28;20054;-67
2022/12/15 16:40:44;;;;;;;37.70;18.15;;;;;;;;;;4959331;28;20031;-65
2022/12/15 16:43:14;;;;;;;49.05;19.25;;;;;;;;;;4959962;28;21085;-64
2022/12/15 16:45:43;;;;;;;41.60;18.55;;;;;;;;;;4958830;28;20491;-67
2022/12/15 16:48:10;;;;;;;45.88;17.98;;;;;;;;;;4958453;28;20046;-68
2022/12/15 16:50:37;;;;;;;33.58;16.20;;;;;;;;;;4959491;28;20070;-67
2022/12/15 16:53:03;;;;;;;29.27;13.60;;;;;;;;;;4958281;28;20102;-67
2022/12/15 16:55:30;;;;;;;37.95;15.30;;;;;;;;;;4958205;28;20118;-66
2022/12/15 16:58:00;;;;;;;27.02;12.57;;;;;;;;;;4961367;28;20561;-65
2022/12/15 17:00:30;;;;;;;44.78;19.73;;;;;;;;;;4962153;28;20054;-67
2022/12/15 17:02:56;;;;;;;36.13;17.65;;;;;;;;;;4959752;28;20034;-66
2022/12/15 17:05:25;;;;;;;47.10;20.05;;;;;;;;;;4960115;28;20035;-67